Overview Statistics Trail Chart Weather Telemetry Raw packets
 

This is the latest recevied weather packets stored in our database for station/object SP6VXP-13. If no packets are shown the sender has not sent any weather packets the latest 10 day(s).

<< 1 2 3 4 >>
Time Temp. Humidity Pressure Rain* Wind** Luminosity Snow
1788552148 24.44° C 49% 964.3 hPa - - - -
1788551548 24.44° C 48% 964 hPa - - - -
1788550948 25° C 46% 963.8 hPa - - - -
1788549977 25.56° C 47% 964 hPa - - - -
1788548894 25.56° C 51% 963.4 hPa - - - -
1788548294 25.56° C 50% 963.1 hPa - - - -
1788547695 25° C 51% 963.2 hPa - - - -
1788547002 24.44° C 52% 962.9 hPa - - - -
1788546403 25° C 52% 961.4 hPa - - - -
1788545802 25.56° C 50% 961.3 hPa - - - -
1788545202 25° C 51% 961.3 hPa - - - -
1788544626 25° C 50% 960.9 hPa - - - -
1788544002 25° C 50% 960.7 hPa - - - -
1788543403 23.89° C 52% 960.6 hPa - - - -
1788542802 23.89° C 52% 961 hPa - - - -
1788542202 23.89° C 53% 961.3 hPa - - - -
1788541602 23.89° C 53% 961.4 hPa - - - -
1788541002 24.44° C 52% 961.4 hPa - - - -
1788540402 25.56° C 50% 961.4 hPa - - - -
1788535539 25° C 50% 961.9 hPa - - - -
1788534939 25° C 50% 962 hPa - - - -
1788534339 25° C 51% 961.8 hPa - - - -
1788533752 25° C 51% 961.9 hPa - - - -
1788533139 24.44° C 52% 962 hPa - - - -
1788532539 23.89° C 53% 962.4 hPa - - - -

* Rain since midnight (hover to see other rain measurements)
** Current wind speed in m/s (hover to see current wind gust speed)